Time;durP1;ratioP1;P1;durP2;ratioP2;P2;SDS_P1;SDS_P2;PMS_P1;PMS_P2;Temp;Humidity;BMP_temperature;BMP_pressure;BME280_temperature;BME280_humidity;BME280_pressure;Samples;Min_cycle;Max_cycle;Signal;HPM_P1;HPM_P2
2022/04/22 00:00:48;;;;;;;;;8.00;6.00;;;;;14.59;50.64;100174.28;4972002;28;45389;-78
2022/04/22 00:03:14;;;;;;;;;7.25;5.75;;;;;14.57;50.91;100177.03;4971178;28;45965;-78
2022/04/22 00:05:39;;;;;;;;;6.75;6.75;;;;;14.56;50.76;100171.84;4971215;28;45763;-79
2022/04/22 00:08:06;;;;;;;;;6.00;6.00;;;;;14.54;51.15;100179.03;4971724;28;45522;-78
2022/04/22 00:10:31;;;;;;;;;8.25;6.25;;;;;14.50;51.14;100161.69;4972215;28;45355;-78
2022/04/22 00:12:57;;;;;;;;;8.00;6.25;;;;;14.49;51.19;100170.56;4970148;28;45655;-79
2022/04/22 00:15:22;;;;;;;;;8.00;6.00;;;;;14.45;51.57;100164.59;4971596;28;45455;-79
2022/04/22 00:17:48;;;;;;;;;7.25;5.50;;;;;14.42;51.21;100172.75;4971652;28;45257;-78
2022/04/22 00:20:14;;;;;;;;;8.75;7.25;;;;;14.39;51.35;100167.66;4971814;28;45393;-78
2022/04/22 00:22:40;;;;;;;;;6.75;6.00;;;;;14.36;51.36;100167.91;4973070;28;45450;-78
2022/04/22 00:25:11;;;;;;;;;7.50;7.50;;;;;14.34;51.65;100159.19;4972849;28;46301;-78
2022/04/22 00:27:37;;;;;;;;;7.00;7.00;;;;;14.27;52.13;100155.28;4971404;28;45204;-79
2022/04/22 00:30:06;;;;;;;;;6.00;6.00;;;;;14.27;51.90;100156.13;4970418;28;45907;-78
2022/04/22 00:32:33;;;;;;;;;6.50;6.50;;;;;14.25;51.91;100154.53;4969808;28;45491;-78
2022/04/22 00:34:59;;;;;;;;;7.25;7.25;;;;;14.21;51.96;100153.06;4971150;28;46231;-78
2022/04/22 00:37:24;;;;;;;;;9.00;6.75;;;;;14.20;52.08;100156.63;4972993;28;45425;-79
2022/04/22 00:39:49;;;;;;;;;7.33;7.00;;;;;14.16;52.34;100163.94;4970949;28;53161;-79
2022/04/22 00:42:15;;;;;;;;;4.50;4.50;;;;;14.14;52.43;100149.13;4971790;28;45474;-78
2022/04/22 00:44:40;;;;;;;;;7.00;6.00;;;;;14.06;52.51;100149.66;4966606;28;45417;-79
2022/04/22 00:47:06;;;;;;;;;8.00;6.50;;;;;14.05;52.53;100143.53;4971429;28;45397;-77
2022/04/22 00:49:31;;;;;;;;;6.00;6.00;;;;;14.04;52.79;100154.16;4973568;28;45454;-79
2022/04/22 00:51:56;;;;;;;;;8.75;7.25;;;;;13.99;52.61;100151.88;4971326;28;45795;-78
2022/04/22 00:54:22;;;;;;;;;8.50;5.00;;;;;13.98;53.03;100147.50;4971060;28;46295;-79
2022/04/22 00:56:50;;;;;;;;;10.25;8.00;;;;;13.98;53.24;100151.94;4970931;28;45551;-79
2022/04/22 00:59:16;;;;;;;;;6.00;6.00;;;;;13.95;53.19;100152.16;4971320;28;45854;-79
2022/04/22 01:01:41;;;;;;;;;8.75;7.75;;;;;13.92;53.32;100145.28;4970871;28;45303;-78
2022/04/22 01:09:47;;;;;;;;;7.50;6.25;;;;;13.82;53.61;100142.38;4970953;28;45743;-79
2022/04/22 01:12:14;;;;;;;;;7.50;7.50;;;;;13.79;53.78;100137.31;4971265;28;45495;-79
2022/04/22 01:14:39;;;;;;;;;6.00;6.00;;;;;13.77;53.25;100136.56;4969418;28;45435;-78
2022/04/22 01:17:05;;;;;;;;;6.00;6.00;;;;;13.74;53.89;100134.13;4958403;28;45470;-78
2022/04/22 01:19:31;;;;;;;;;5.25;4.75;;;;;13.72;53.80;100133.38;4972978;28;45320;-79
2022/04/22 01:21:57;;;;;;;;;9.00;6.00;;;;;13.70;54.29;100130.00;4971007;28;47804;-78
2022/04/22 01:24:22;;;;;;;;;5.25;5.25;;;;;13.69;54.27;100124.81;4970719;28;45573;-79
2022/04/22 01:26:49;;;;;;;;;7.00;6.00;;;;;13.68;54.50;100123.13;4970565;28;45267;-79
2022/04/22 01:29:14;;;;;;;;;9.75;8.50;;;;;13.66;54.59;100127.66;4971176;28;45355;-78
2022/04/22 01:31:43;;;;;;;;;5.75;5.75;;;;;13.63;54.29;100126.06;4970875;28;45443;-79
2022/04/22 01:34:08;;;;;;;;;8.75;8.00;;;;;13.61;54.58;100125.31;4971446;28;45308;-79
2022/04/22 01:36:33;;;;;;;;;5.75;5.75;;;;;13.58;54.54;100120.25;4967368;28;47977;-78
2022/04/22 01:38:59;;;;;;;;;7.50;6.50;;;;;13.57;54.58;100122.03;4970789;28;45379;-79
2022/04/22 01:41:24;;;;;;;;;6.00;5.00;;;;;13.55;54.89;100107.22;4970294;28;50138;-78
2022/04/22 01:43:49;;;;;;;;;6.25;6.25;;;;;13.54;55.07;100116.09;4973238;28;45886;-79
2022/04/22 01:46:15;;;;;;;;;7.00;7.00;;;;;13.49;55.05;100113.75;4975556;28;45437;-80
2022/04/22 01:48:41;;;;;;;;;7.25;6.00;;;;;13.47;55.06;100109.53;4967152;28;45399;-78
2022/04/22 01:51:06;;;;;;;;;6.75;6.75;;;;;13.44;55.01;100110.56;4966052;28;45710;-79
2022/04/22 01:53:32;;;;;;;;;5.50;5.50;;;;;13.39;55.21;100104.75;4971976;28;47107;-79
2022/04/22 01:55:57;;;;;;;;;8.50;6.50;;;;;13.39;55.30;100111.81;4973363;28;45340;-78
2022/04/22 01:58:22;;;;;;;;;7.00;6.00;;;;;13.36;55.40;100102.28;4975570;28;45263;-77
2022/04/22 02:00:48;;;;;;;;;9.25;6.50;;;;;13.37;55.24;100108.44;4973038;28;45985;-79
2022/04/22 02:03:13;;;;;;;;;8.00;6.00;;;;;13.35;55.62;100105.88;4972435;28;52835;-78
2022/04/22 02:05:40;;;;;;;;;7.50;6.00;;;;;13.29;56.23;100093.09;4970234;28;50101;-79
2022/04/22 02:08:06;;;;;;;;;7.00;5.00;;;;;13.31;55.73;100107.88;4973427;28;45684;-79
2022/04/22 02:10:31;;;;;;;;;7.75;5.50;;;;;13.29;55.74;100104.47;4974816;28;45495;-78
2022/04/22 02:12:57;;;;;;;;;7.25;7.25;;;;;13.24;56.17;100096.03;4973063;28;47146;-79
2022/04/22 02:15:22;;;;;;;;;6.50;6.25;;;;;13.24;56.27;100096.03;4973326;28;45493;-78
2022/04/22 02:17:48;;;;;;;;;12.00;8.00;;;;;13.21;56.27;100096.22;4973300;28;45463;-78
2022/04/22 02:20:13;;;;;;;;;8.00;5.50;;;;;13.18;56.08;100099.03;4973319;28;45414;-78
2022/04/22 02:22:39;;;;;;;;;6.50;6.50;;;;;13.16;56.19;100095.66;4966653;28;45995;-77
2022/04/22 02:25:06;;;;;;;;;10.75;7.50;;;;;13.14;56.10;100100.16;4972588;28;45387;-78
2022/04/22 02:30:18;;;;;;;;;6.50;6.50;;;;;13.10;55.73;100100.44;4971687;28;45469;-78
2022/04/22 02:32:44;;;;;;;;;6.75;6.75;;;;;13.07;56.00;100096.22;4970982;28;46156;-78
2022/04/22 02:35:09;;;;;;;;;10.50;7.25;;;;;13.00;56.43;100076.47;4973069;28;45516;-77
2022/04/22 02:37:35;;;;;;;;;7.25;6.25;;;;;13.04;56.03;100086.69;4974711;28;45291;-77
2022/04/22 02:40:00;;;;;;;;;7.00;7.00;;;;;13.01;56.32;100080.78;4965391;28;45574;-78
2022/04/22 02:45:26;;;;;;;;;7.50;7.00;;;;;12.95;55.96;100083.81;4972450;28;45804;-79
2022/04/22 02:47:51;;;;;;;;;7.50;6.00;;;;;12.96;55.96;100080.22;4972533;28;45491;-78
2022/04/22 02:50:17;;;;;;;;;8.50;8.00;;;;;12.92;56.03;100086.63;4978141;28;45512;-77
2022/04/22 02:52:42;;;;;;;;;7.00;7.00;;;;;12.90;56.14;100083.25;4985046;28;45581;-78
2022/04/22 02:55:08;;;;;;;;;8.50;8.00;;;;;12.86;56.52;100085.25;4973415;28;50541;-78
2022/04/22 02:57:33;;;;;;;;;14.25;11.00;;;;;12.86;56.64;100084.41;4971548;28;45707;-78
2022/04/22 02:59:59;;;;;;;;;11.25;9.75;;;;;12.84;55.99;100079.19;4972634;28;45405;-78
2022/04/22 03:02:24;;;;;;;;;11.75;10.75;;;;;12.80;56.00;100078.56;4972090;28;45448;-78
2022/04/22 03:04:49;;;;;;;;;7.50;7.50;;;;;12.77;56.76;100081.38;4972643;28;45565;-78
2022/04/22 03:07:15;;;;;;;;;12.00;10.50;;;;;12.76;56.37;100074.41;4974615;28;45399;-77
2022/04/22 03:09:40;;;;;;;;;11.00;7.00;;;;;12.74;56.75;100071.03;4971142;28;45479;-78
2022/04/22 03:12:08;;;;;;;;;11.00;7.50;;;;;12.70;56.97;100069.53;4970981;28;45623;-78
2022/04/22 03:14:33;;;;;;;;;8.25;6.75;;;;;12.71;56.95;100067.75;4969074;28;45501;-77
2022/04/22 03:16:59;;;;;;;;;9.25;9.00;;;;;12.69;56.83;100077.53;4972447;28;45569;-77
2022/04/22 03:19:24;;;;;;;;;9.25;8.00;;;;;12.65;56.95;100070.75;4974376;28;45366;-78
2022/04/22 03:21:49;;;;;;;;;10.25;8.25;;;;;12.61;56.96;100072.72;4972063;28;49004;-78
2022/04/22 03:24:14;;;;;;;;;11.25;7.50;;;;;12.62;57.13;100068.31;4982895;28;45584;-77
2022/04/22 03:26:40;;;;;;;;;9.75;9.50;;;;;12.58;57.21;100074.69;4971764;28;46451;-78
2022/04/22 03:29:05;;;;;;;;;11.00;10.00;;;;;12.58;57.38;100079.97;4972531;28;51335;-78
2022/04/22 03:31:31;;;;;;;;;11.00;9.50;;;;;12.54;57.51;100074.91;4966680;28;45806;-79
2022/04/22 03:33:56;;;;;;;;;9.00;7.50;;;;;12.52;57.18;100063.59;4971357;28;45309;-78
2022/04/22 03:36:22;;;;;;;;;7.50;7.00;;;;;12.50;57.74;100065.50;4980336;28;45296;-78
2022/04/22 03:38:47;;;;;;;;;13.00;11.00;;;;;12.49;57.10;100062.97;4971967;28;45465;-78
2022/04/22 03:41:12;;;;;;;;;9.75;7.75;;;;;12.46;57.66;100063.97;4972037;28;46305;-79
2022/04/22 03:43:40;;;;;;;;;14.25;9.50;;;;;12.45;57.60;100064.06;4973423;28;45442;-78
2022/04/22 03:46:05;;;;;;;;;10.00;8.50;;;;;12.43;57.75;100058.91;4973069;28;45481;-79
2022/04/22 03:48:31;;;;;;;;;10.50;9.75;;;;;12.40;56.92;100060.88;4971055;28;45464;-77
2022/04/22 03:50:56;;;;;;;;;11.00;8.25;;;;;12.38;56.89;100070.69;4970158;28;46193;-78
2022/04/22 03:53:21;;;;;;;;;8.00;6.50;;;;;12.33;57.72;100060.41;4971717;28;46641;-78
2022/04/22 03:55:47;;;;;;;;;11.00;9.75;;;;;12.32;57.41;100071.91;4972461;28;45631;-78
2022/04/22 03:58:12;;;;;;;;;9.25;8.50;;;;;12.31;57.86;100056.16;4973666;28;45415;-79
2022/04/22 04:00:42;;;;;;;;;11.50;9.25;;;;;12.27;57.44;100064.28;4969497;28;46053;-77
2022/04/22 04:03:13;;;;;;;;;10.00;10.00;;;;;12.26;57.04;100053.81;4970383;28;45933;-78
2022/04/22 04:05:41;;;;;;;;;7.25;7.25;;;;;12.21;57.08;100059.34;4971124;28;45471;-78
2022/04/22 04:08:10;;;;;;;;;11.75;9.75;;;;;12.18;58.09;100056.91;4971490;28;45475;-79
2022/04/22 04:16:03;;;;;;;;;12.00;10.50;;;;;12.13;58.47;100055.50;4972181;28;45248;-78
2022/04/22 04:18:40;;;;;;;;;12.50;10.00;;;;;12.11;58.46;100060.00;4971772;28;45524;-78
2022/04/22 04:23:53;;;;;;;;;11.00;9.25;;;;;12.06;58.66;100052.41;4971312;28;46029;-77
2022/04/22 04:26:21;;;;;;;;;14.50;10.00;;;;;12.06;58.39;100055.03;4970474;28;45372;-78
2022/04/22 04:28:47;;;;;;;;;8.75;8.75;;;;;12.04;58.90;100053.41;4972776;28;45183;-78
2022/04/22 04:31:13;;;;;;;;;11.75;11.00;;;;;12.02;58.41;100045.63;4970812;28;45982;-77
2022/04/22 04:33:40;;;;;;;;;11.75;11.00;;;;;12.01;59.08;100043.91;4971431;28;45862;-78
2022/04/22 04:36:06;;;;;;;;;12.00;11.25;;;;;12.00;58.81;100042.19;4968088;28;45466;-79
2022/04/22 04:38:32;;;;;;;;;10.75;9.00;;;;;11.99;58.77;100041.34;4971349;28;45557;-78
2022/04/22 04:40:59;;;;;;;;;10.50;10.50;;;;;11.98;58.44;100042.31;4970509;28;46288;-78
2022/04/22 04:43:24;;;;;;;;;11.75;9.50;;;;;11.98;58.46;100044.09;4973484;28;45782;-78
2022/04/22 04:45:50;;;;;;;;;10.00;10.00;;;;;11.96;58.95;100048.63;4971339;28;45496;-78
2022/04/22 04:48:16;;;;;;;;;9.75;9.00;;;;;11.95;58.80;100050.41;4971370;28;45504;-79
2022/04/22 04:50:46;;;;;;;;;14.50;11.00;;;;;11.96;59.34;100048.63;4971046;28;45881;-78
2022/04/22 04:53:12;;;;;;;;;12.00;11.75;;;;;11.96;59.13;100046.81;4971172;28;45555;-76
2022/04/22 04:55:38;;;;;;;;;10.75;10.75;;;;;11.98;59.27;100038.81;4972725;28;45328;-78
2022/04/22 04:58:04;;;;;;;;;13.75;11.00;;;;;11.97;59.05;100045.88;4970335;28;45502;-78
2022/04/22 05:00:30;;;;;;;;;10.50;10.50;;;;;11.97;59.20;100039.78;4970640;28;45307;-79
2022/04/22 05:02:55;;;;;;;;;9.25;9.00;;;;;11.98;59.11;100039.66;4970856;28;45554;-79
2022/04/22 05:05:21;;;;;;;;;11.00;10.00;;;;;11.98;59.20;100031.78;4971395;28;45229;-79
2022/04/22 05:07:53;;;;;;;;;11.00;11.00;;;;;11.99;58.72;100040.50;4972319;28;45318;-79
2022/04/22 05:10:19;;;;;;;;;10.25;9.75;;;;;11.97;59.01;100043.25;4971227;28;45802;-79
2022/04/22 05:12:48;;;;;;;;;13.00;11.00;;;;;11.97;59.21;100039.78;4971165;28;45518;-79
2022/04/22 05:15:15;;;;;;;;;10.75;10.75;;;;;11.97;59.77;100037.97;4969231;28;45437;-78
2022/04/22 05:17:45;;;;;;;;;13.25;10.25;;;;;11.98;58.88;100044.94;4970949;28;45421;-79
2022/04/22 05:20:12;;;;;;;;;11.50;11.00;;;;;11.99;58.98;100038.72;4970947;28;46148;-79
2022/04/22 05:22:38;;;;;;;;;12.00;11.25;;;;;12.00;59.60;100029.88;4972130;28;46198;-79
2022/04/22 05:25:10;;;;;;;;;9.50;8.75;;;;;12.01;59.71;100036.03;4971642;28;45584;-79
2022/04/22 05:27:35;;;;;;;;;7.25;7.25;;;;;12.02;59.96;100030.66;4970670;28;45668;-79
2022/04/22 05:32:48;;;;;;;;;12.00;11.00;;;;;12.04;59.63;100037.59;4960998;28;45460;-79
2022/04/22 05:35:15;;;;;;;;;12.25;11.75;;;;;12.07;59.63;100035.66;4971229;28;45531;-79
2022/04/22 05:37:48;;;;;;;;;11.50;9.75;;;;;12.10;60.08;100035.44;4971432;28;45512;-78
2022/04/22 05:40:16;;;;;;;;;12.00;10.50;;;;;12.13;59.78;100030.00;4970603;28;45378;-78
2022/04/22 05:42:42;;;;;;;;;11.75;11.00;;;;;12.17;59.70;100026.25;4970415;28;45546;-79
2022/04/22 05:45:09;;;;;;;;;11.25;10.75;;;;;12.21;59.90;100029.53;4967299;28;45330;-78
2022/04/22 05:47:35;;;;;;;;;16.25;12.00;;;;;12.25;59.61;100033.66;4959853;28;45505;-78
2022/04/22 05:50:04;;;;;;;;;14.50;12.00;;;;;12.28;59.59;100030.88;4970505;28;46268;-78
2022/04/22 05:52:32;;;;;;;;;10.00;9.00;;;;;12.31;59.83;100033.28;4972146;28;45934;-78
2022/04/22 05:54:57;;;;;;;;;10.75;10.25;;;;;12.36;59.24;100038.28;4970546;28;45426;-79
2022/04/22 05:57:23;;;;;;;;;13.00;12.75;;;;;12.40;59.50;100035.38;4970202;28;45382;-78
2022/04/22 05:59:48;;;;;;;;;10.00;10.00;;;;;12.43;59.88;100043.09;4970298;28;45430;-79
2022/04/22 06:02:14;;;;;;;;;17.25;11.00;;;;;12.49;59.22;100041.88;4971903;28;45366;-78
2022/04/22 06:04:39;;;;;;;;;15.25;13.25;;;;;12.51;59.29;100045.25;4971642;28;45354;-80
2022/04/22 06:07:04;;;;;;;;;15.25;12.25;;;;;12.53;59.49;100054.78;4970511;28;46783;-79
2022/04/22 06:12:13;;;;;;;;;14.75;11.25;;;;;12.66;59.66;100054.84;4970101;28;45526;-80
2022/04/22 06:14:39;;;;;;;;;17.50;11.00;;;;;12.75;59.84;100054.28;4969877;28;49413;-77
2022/04/22 06:17:05;;;;;;;;;12.00;10.00;;;;;12.84;59.55;100050.19;4985901;28;45324;-79
2022/04/22 06:19:31;;;;;;;;;12.75;11.50;;;;;12.89;59.36;100044.63;4970840;28;45441;-79
2022/04/22 06:21:57;;;;;;;;;14.00;11.25;;;;;12.93;59.00;100046.97;4969570;28;45435;-79
2022/04/22 06:24:22;;;;;;;;;14.50;13.00;;;;;12.98;59.04;100041.41;4971123;28;45713;-79
2022/04/22 06:26:47;;;;;;;;;13.00;12.25;;;;;13.04;59.20;100043.66;4979192;28;45271;-76
2022/04/22 06:29:13;;;;;;;;;14.50;12.25;;;;;13.11;58.76;100037.06;4971442;28;47439;-75
2022/04/22 06:31:39;;;;;;;;;17.50;13.00;;;;;13.15;58.66;100032.41;4975965;28;45375;-76
2022/04/22 06:34:04;;;;;;;;;14.00;11.00;;;;;13.18;59.06;100038.34;4971156;28;45398;-75
2022/04/22 06:36:30;;;;;;;;;14.50;12.25;;;;;13.26;58.78;100035.25;4972813;28;45456;-76
2022/04/22 06:38:59;;;;;;;;;14.00;12.50;;;;;13.34;58.75;100040.84;4991096;28;46866;-75
2022/04/22 06:46:54;;;;;;;;;13.00;11.75;;;;;13.52;58.54;100028.22;4975622;28;45557;-76
2022/04/22 06:49:20;;;;;;;;;17.00;13.00;;;;;13.61;58.51;100032.91;4969677;28;45717;-79
2022/04/22 06:51:45;;;;;;;;;11.50;11.50;;;;;13.69;58.44;100038.53;4973621;28;45433;-78
2022/04/22 06:54:11;;;;;;;;;11.50;10.00;;;;;13.77;58.11;100036.22;4966968;28;45470;-77
2022/04/22 06:56:40;;;;;;;;;18.75;16.25;;;;;13.88;57.98;100035.47;4973523;28;45513;-77
2022/04/22 06:59:06;;;;;;;;;12.50;11.50;;;;;13.96;57.53;100034.97;4964564;28;47380;-78
2022/04/22 07:01:31;;;;;;;;;15.00;10.50;;;;;14.03;58.24;100037.06;4973092;28;45675;-77
2022/04/22 07:03:58;;;;;;;;;18.50;13.50;;;;;14.17;58.20;100040.59;4970113;28;45521;-79
2022/04/22 07:06:25;;;;;;;;;10.50;9.50;;;;;14.29;57.76;100032.63;4968109;28;45440;-78
2022/04/22 07:08:50;;;;;;;;;16.50;13.00;;;;;14.38;57.58;100035.59;4982244;28;46324;-79
2022/04/22 07:11:25;;;;;;;;;12.00;12.00;;;;;14.46;57.24;100030.59;4976363;28;45295;-78
2022/04/22 07:13:55;;;;;;;;;14.25;13.25;;;;;14.63;57.53;100034.78;4957273;28;45526;-77
2022/04/22 07:16:21;;;;;;;;;15.50;13.75;;;;;14.75;57.11;100025.94;4974782;28;45565;-76
2022/04/22 07:18:47;;;;;;;;;13.25;13.25;;;;;14.85;56.40;100026.97;4983096;28;45960;-79
2022/04/22 07:21:13;;;;;;;;;13.75;13.50;;;;;14.95;56.58;100027.16;4971253;28;45443;-77
2022/04/22 07:23:39;;;;;;;;;12.25;12.00;;;;;15.12;56.38;100030.25;4971430;28;46185;-77
2022/04/22 07:26:09;;;;;;;;;14.50;14.00;;;;;15.26;56.10;100031.06;4977358;28;45528;-77
2022/04/22 07:28:36;;;;;;;;;13.25;11.50;;;;;15.45;56.09;100025.25;4983481;28;46276;-76
2022/04/22 07:31:01;;;;;;;;;13.00;13.00;;;;;15.55;55.51;100028.88;4956838;28;45938;-78
2022/04/22 07:33:27;;;;;;;;;16.75;13.25;;;;;15.53;55.23;100029.00;4968136;28;45474;-79
2022/04/22 07:35:52;;;;;;;;;13.25;13.25;;;;;15.52;55.20;100021.19;4957155;28;45368;-78
2022/04/22 07:38:18;;;;;;;;;12.75;11.25;;;;;15.55;54.98;100021.78;4975156;28;46100;-78
2022/04/22 07:40:49;;;;;;;;;17.50;14.75;;;;;15.59;54.84;100019.75;4962956;28;46133;-78
2022/04/22 07:48:46;;;;;;;;;15.75;15.00;;;;;15.81;54.50;100014.56;4971812;28;45512;-80
2022/04/22 07:51:11;;;;;;;;;16.25;14.00;;;;;15.89;54.51;100017.47;4970755;28;45365;-78
2022/04/22 07:53:37;;;;;;;;;16.75;15.75;;;;;16.00;54.31;100019.31;4980225;28;48544;-78
2022/04/22 07:56:03;;;;;;;;;17.50;12.00;;;;;16.10;54.04;100009.69;4976367;28;45532;-78
2022/04/22 07:58:31;;;;;;;;;15.50;14.25;;;;;16.23;53.63;100006.91;4967693;28;45643;-77
2022/04/22 08:00:56;;;;;;;;;10.00;10.00;;;;;16.34;53.44;100014.00;4960825;28;47019;-76
2022/04/22 08:03:22;;;;;;;;;18.50;15.25;;;;;16.44;53.26;100013.19;4969364;28;45702;-78
2022/04/22 08:05:47;;;;;;;;;13.00;11.50;;;;;16.58;53.38;100012.09;4976978;28;45301;-77
2022/04/22 08:08:13;;;;;;;;;12.50;11.75;;;;;16.80;53.15;100019.22;4971829;28;45430;-77
2022/04/22 08:10:38;;;;;;;;;17.50;12.00;;;;;17.00;53.03;100011.47;4954506;28;45653;-77
2022/04/22 08:13:07;;;;;;;;;16.50;12.50;;;;;17.08;52.03;100020.50;4957678;28;45543;-76
2022/04/22 08:15:34;;;;;;;;;18.25;14.00;;;;;17.20;51.78;100021.28;4960303;28;45431;-76
2022/04/22 08:18:00;;;;;;;;;19.75;12.50;;;;;17.36;51.78;100024.38;4967510;28;46065;-77
2022/04/22 08:20:26;;;;;;;;;13.75;13.75;;;;;17.71;51.88;100018.78;4976571;28;45757;-76
2022/04/22 08:22:52;;;;;;;;;14.25;12.50;;;;;18.08;50.94;100015.69;4972941;28;45637;-76
2022/04/22 08:25:17;;;;;;;;;13.00;11.25;;;;;18.43;50.43;100009.16;4967525;28;47386;-77
2022/04/22 08:27:45;;;;;;;;;11.75;10.00;;;;;18.71;49.55;100002.28;4967682;28;45290;-77
2022/04/22 08:30:11;;;;;;;;;15.50;14.75;;;;;18.99;48.74;99996.16;4967228;28;45572;-76
2022/04/22 08:32:36;;;;;;;;;12.25;11.00;;;;;19.25;49.16;99996.47;4970406;28;45505;-77
2022/04/22 08:35:02;;;;;;;;;15.25;14.00;;;;;19.53;48.04;99988.63;4955956;28;45469;-77
2022/04/22 08:37:27;;;;;;;;;14.75;13.50;;;;;19.81;46.87;99989.59;4968900;28;45407;-77
2022/04/22 08:39:55;;;;;;;;;14.25;11.25;;;;;20.35;46.70;99993.34;4966988;28;45444;-77
2022/04/22 08:42:24;;;;;;;;;14.75;12.25;;;;;21.20;45.77;99983.34;4971459;28;45455;-77
2022/04/22 08:44:50;;;;;;;;;13.25;13.25;;;;;22.49;46.08;99977.25;4971522;28;45469;-77
2022/04/22 08:50:01;;;;;;;;;17.25;14.00;;;;;25.81;41.31;99966.09;4971574;28;45822;-76
2022/04/22 08:52:31;;;;;;;;;14.00;13.50;;;;;28.52;40.67;99962.72;4964111;28;45412;-77
2022/04/22 08:54:58;;;;;;;;;14.50;11.50;;;;;31.48;37.20;99979.84;4969650;28;45530;-77
2022/04/22 08:57:23;;;;;;;;;11.50;9.50;;;;;33.88;34.81;99968.53;4970744;28;46385;-77
2022/04/22 08:59:49;;;;;;;;;12.25;11.00;;;;;35.68;31.76;99969.16;4969540;28;45439;-76
2022/04/22 09:02:18;;;;;;;;;13.00;11.75;;;;;37.03;29.42;99967.69;4969444;28;45837;-78
2022/04/22 09:04:47;;;;;;;;;11.00;9.75;;;;;38.22;27.98;99973.03;4972049;28;45354;-77
2022/04/22 09:07:13;;;;;;;;;12.00;11.50;;;;;39.38;26.31;99969.00;4972520;28;46146;-77
2022/04/22 09:09:42;;;;;;;;;13.00;12.00;;;;;40.47;23.98;99974.06;4969615;28;45686;-77
2022/04/22 09:12:12;;;;;;;;;13.50;10.00;;;;;41.33;23.37;99976.31;4970850;28;45467;-76
2022/04/22 09:14:49;;;;;;;;;9.50;8.50;;;;;41.98;22.87;99967.78;4971028;28;45346;-77
2022/04/22 09:17:16;;;;;;;;;11.50;10.75;;;;;42.64;21.58;99980.81;4970634;28;46091;-77
2022/04/22 09:19:44;;;;;;;;;12.25;10.50;;;;;43.19;20.93;99972.84;4971934;28;45332;-76
2022/04/22 09:22:10;;;;;;;;;9.25;8.25;;;;;43.41;21.17;99974.19;4972349;28;45350;-77
2022/04/22 09:24:49;;;;;;;;;9.00;8.25;;;;;43.23;19.40;99976.66;4970992;28;45352;-76
2022/04/22 09:27:15;;;;;;;;;10.50;9.00;;;;;41.95;19.23;99965.59;4965983;28;47830;-76
2022/04/22 09:29:52;;;;;;;;;7.00;6.00;;;;;40.81;20.66;99969.50;4970245;28;45519;-76
2022/04/22 09:32:24;;;;;;;;;9.25;8.00;;;;;39.41;20.36;99966.53;4971085;28;45408;-77
2022/04/22 09:34:51;;;;;;;;;7.25;5.50;;;;;38.32;20.89;99956.63;4970275;28;45344;-77
2022/04/22 09:42:55;;;;;;;;;7.50;7.25;;;;;35.61;21.38;99969.31;4968688;28;45478;-77
2022/04/22 09:45:21;;;;;;;;;5.50;5.50;;;;;35.32;22.53;99968.53;4974603;28;45386;-78
2022/04/22 09:47:58;;;;;;;;;8.00;7.00;;;;;34.87;22.28;99966.59;4977347;28;46082;-77
2022/04/22 09:50:39;;;;;;;;;4.75;4.75;;;;;34.53;22.99;99968.38;4970575;28;45547;-78
2022/04/22 09:53:06;;;;;;;;;7.25;6.75;;;;;34.34;23.12;99954.03;4955420;28;45318;-77
2022/04/22 09:55:35;;;;;;;;;5.25;5.25;;;;;33.99;23.22;99948.66;4972569;28;45366;-77
2022/04/22 09:58:00;;;;;;;;;5.75;5.75;;;;;33.86;23.52;99952.41;4969660;28;46397;-77
2022/04/22 10:00:31;;;;;;;;;4.00;4.00;;;;;33.86;22.87;99955.16;4970331;28;45617;-78
2022/04/22 10:02:57;;;;;;;;;4.25;3.75;;;;;33.84;23.05;99954.56;4970261;28;45524;-77
2022/04/22 10:05:24;;;;;;;;;6.25;5.25;;;;;33.71;23.09;99950.16;4969479;28;45444;-78
2022/04/22 10:08:02;;;;;;;;;6.00;4.25;;;;;33.56;22.63;99947.06;4973447;28;45407;-79
2022/04/22 10:10:37;;;;;;;;;27.75;26.25;;;;;33.23;23.13;99940.25;4977423;28;45794;-81
2022/04/22 10:13:04;;;;;;;;;7.25;6.00;;;;;32.87;23.17;99952.06;4970759;28;45303;-79
2022/04/22 10:15:35;;;;;;;;;5.50;5.50;;;;;32.49;22.77;99932.50;4971497;28;45725;-75
2022/04/22 10:18:00;;;;;;;;;4.25;4.25;;;;;31.89;23.49;99944.84;4971832;28;45489;-76
2022/04/22 10:20:27;;;;;;;;;5.50;4.75;;;;;31.16;23.58;99934.53;4971118;28;45632;-76
2022/04/22 10:22:53;;;;;;;;;5.25;5.00;;;;;30.43;24.12;99944.91;4971089;28;45726;-76
2022/04/22 10:25:19;;;;;;;;;4.75;4.75;;;;;29.91;24.40;99933.16;4959029;28;45653;-76
2022/04/22 10:27:46;;;;;;;;;5.50;5.50;;;;;29.50;24.84;99946.94;4959112;28;47169;-77
2022/04/22 10:30:15;;;;;;;;;6.75;6.75;;;;;29.04;24.93;99940.44;4960703;28;45573;-76
2022/04/22 10:32:43;;;;;;;;;5.50;5.50;;;;;28.78;25.52;99932.22;4977133;28;45525;-78
2022/04/22 10:35:09;;;;;;;;;11.00;5.75;;;;;28.66;25.63;99925.72;4971602;28;45659;-77
2022/04/22 10:37:38;;;;;;;;;5.00;3.75;;;;;28.46;25.95;99929.22;4976234;28;45488;-77
2022/04/22 10:40:05;;;;;;;;;6.00;4.00;;;;;28.04;26.12;99936.47;4978230;28;45376;-75
2022/04/22 10:42:32;;;;;;;;;4.00;4.00;;;;;27.57;26.09;99929.88;4968457;28;45623;-78
2022/04/22 10:47:48;;;;;;;;;4.50;3.75;;;;;27.15;26.46;99930.75;4989548;28;45551;-75
2022/04/22 10:50:27;;;;;;;;;6.00;6.00;;;;;27.04;26.93;99936.59;4980518;28;45603;-74
2022/04/22 10:53:07;;;;;;;;;5.75;4.00;;;;;26.86;27.52;99930.84;4972400;28;45330;-77
2022/04/22 10:55:38;;;;;;;;;11.00;9.75;;;;;26.70;27.32;99926.50;4968965;28;45471;-76
2022/04/22 10:58:13;;;;;;;;;6.25;6.25;;;;;26.48;27.52;99925.63;4968460;28;45822;-76
2022/04/22 11:00:42;;;;;;;;;5.00;5.00;;;;;26.18;27.85;99924.81;4965579;28;45682;-76
2022/04/22 11:03:37;;;;;;;;;7.00;5.25;;;;;26.18;27.81;99917.56;4958865;28;45572;-76
2022/04/22 11:06:06;;;;;;;;;7.75;5.50;;;;;26.16;28.19;99910.69;4954213;28;45489;-79
2022/04/22 11:08:38;;;;;;;;;5.00;5.00;;;;;26.06;28.11;99910.97;4970155;28;46157;-77
2022/04/22 11:11:05;;;;;;;;;5.00;4.00;;;;;25.86;28.45;99921.47;4970774;28;45625;-78
2022/04/22 11:13:40;;;;;;;;;5.50;5.00;;;;;25.75;28.14;99911.97;4975139;28;45671;-81
2022/04/22 11:16:29;;;;;;;;;6.00;6.00;;;;;25.72;28.37;99915.00;4968375;28;45730;-74
2022/04/22 11:19:19;;;;;;;;;4.00;4.00;;;;;25.60;28.74;99904.88;4963469;28;46143;-74
2022/04/22 11:21:46;;;;;;;;;7.00;6.00;;;;;25.55;28.92;99905.44;4961969;28;45528;-77
2022/04/22 11:24:19;;;;;;;;;4.75;4.75;;;;;25.56;29.05;99909.78;4965137;28;45284;-76
2022/04/22 11:26:45;;;;;;;;;6.50;5.00;;;;;25.50;28.78;99897.91;4965938;28;45394;-76
2022/04/22 11:29:12;;;;;;;;;5.00;5.00;;;;;25.43;28.93;99905.03;4970054;28;47240;-79
2022/04/22 11:31:37;;;;;;;;;5.50;5.50;;;;;25.41;29.24;99898.16;4973458;28;45674;-77
2022/04/22 11:34:06;;;;;;;;;6.00;5.50;;;;;25.51;29.05;99899.56;4971605;28;45326;-77
2022/04/22 11:36:46;;;;;;;;;5.25;5.25;;;;;25.52;29.06;99901.22;4963830;28;45753;-77
2022/04/22 11:39:29;;;;;;;;;8.00;6.25;;;;;25.52;29.38;99889.63;4965061;28;45967;-77
2022/04/22 11:42:01;;;;;;;;;6.00;6.00;;;;;25.54;29.19;99898.38;4971990;28;45422;-75
2022/04/22 11:44:27;;;;;;;;;4.50;4.50;;;;;25.40;29.03;99899.19;4970051;28;45520;-77
2022/04/22 11:46:53;;;;;;;;;3.75;3.00;;;;;25.24;29.30;99897.47;4972202;28;45479;-77
2022/04/22 11:49:20;;;;;;;;;4.00;4.00;;;;;25.12;29.16;99898.94;4969974;28;45402;-76
2022/04/22 11:51:50;;;;;;;;;5.75;5.75;;;;;25.06;29.51;99892.41;4968427;28;45422;-76
2022/04/22 11:54:21;;;;;;;;;5.50;5.00;;;;;25.10;29.72;99891.03;4969895;28;45598;-75
2022/04/22 11:56:47;;;;;;;;;8.75;6.00;;;;;25.17;29.75;99883.91;4965646;28;45283;-74
2022/04/22 11:59:12;;;;;;;;;22.75;17.75;;;;;25.20;29.72;99882.72;4971066;28;60619;-74
2022/04/22 12:08:00;;;;;;;;;8.75;8.75;;;;;25.22;30.08;99869.94;4960192;28;45817;-76
2022/04/22 12:10:06;;;;;;;;;7.00;6.25;;;;;25.13;30.53;99865.63;4959985;28;45631;-73
2022/04/22 12:12:31;;;;;;;;;7.50;6.00;;;;;25.09;30.05;99870.53;4961473;28;45716;-75